Latest Coastal Weather Observations for Kalumburu

IDW60701

Issued at 5:51 pm WST Wednesday 4 May 2016 (issued every 10 minutes, with the page automatically refreshed every 10 minutes)

About coastal observations | Map of coastal stations | Coastal observations for WA | Marine services | Other Formats
Station Details ID: 001019 Name: KALUMBURU Lat: -14.30 Lon: 126.65 Height: 23.0 m
Data from the previous 72 hours. | See also: Recent months at Kalumburu
Date/Time
WST
Temp

°C
Wind Pressure Rain
since 9am
mm
Weather Cloud Vis
km
Sea
Height
m
Swell
Dir
 
Speed
knots
Gust
knots
hPa Trend Height
m
Period
s
Dir
04/05:30pm 27.7 NNE 3 5 1010.4 - 1.8 - - - - - - -
04/05:00pm 27.9 NNE 4 5 1010.0 - 1.8 - - - - - - -
04/04:30pm 27.1 NNE 4 6 1009.9 - 1.6 - - - - - - -
04/04:00pm 29.2 E 9 12 1010.0 - 1.6 - - - - - - -
04/03:30pm 29.1 NE 7 11 1009.6 - 1.6 - - - - - - -
04/03:00pm 28.4 NNE 11 16 1009.1 - 1.6 - - - - - - -
04/02:50pm 28.7 NNE 12 19 1009.1 - 1.6 - - - - - - -
04/02:30pm 33.8 N 7 11 1008.8 - 1.6 - - - - - - -
04/02:00pm 32.7 NNE 8 11 1009.0 - 1.6 - - - - - - -
04/01:30pm 31.8 NNE 7 11 1009.3 - 1.6 - - - - - - -
04/01:00pm 29.2 NNE 7 10 1010.0 - 1.6 - - - - - - -
04/12:30pm 31.6 NNE 10 17 1010.2 - 0.0 - - - - - - -
04/12:00pm 33.1 E 7 10 1010.2 - 0.0 - - - - - - -
04/11:30am 35.3 E 6 12 1010.5 - 0.0 - - - - - - -
04/11:00am 34.8 ENE 8 14 1011.1 - 0.0 - - - - - - -
04/10:30am 33.3 E 7 11 1011.6 - 0.0 - - - - - - -
04/10:00am 33.4 E 8 13 1012.0 - 0.0 - - - - - - -
04/09:30am 32.9 ENE 7 14 1012.3 - 0.0 - - - - - - -
04/09:00am 31.9 E 7 11 1012.6 - 0.6 Recent precip. - - - - - -
04/08:30am 30.9 ESE 7 12 1012.9 - 0.4 - - - - - - -
04/08:00am 30.4 SE 6 10 1012.9 - 0.4 - - - - - - -
04/07:30am 29.4 ESE 7 9 1012.6 - 0.4 - - - - - - -
04/07:00am 27.8 S 4 5 1012.5 - 0.4 - - - - - - -
04/06:30am 26.3 S 4 5 1012.4 - 0.4 - - - - - - -
04/06:00am 24.4 SSE 2 5 1011.9 - 0.4 - - - - - - -
04/05:30am 24.5 SE 3 5 1011.3 - 0.4 - - - - - - -
04/05:00am 24.7 SE 1 3 1011.0 - 0.4 - - - - - - -
04/04:30am 23.7 SSW 1 5 1010.9 - 0.4 - - - - - - -
04/04:00am 23.7 CALM 0 0 1010.7 - 0.4 - - - - - - -
04/03:30am 23.6 CALM 0 0 1010.8 - 0.4 - - - - - - -
04/03:00am 23.4 CALM 0 0 1010.6 - 0.4 - - - - - - -
04/02:30am 23.8 S 3 4 1010.8 - 0.4 - - - - - - -
04/02:00am 23.9 SE 1 4 1010.9 - 0.4 - - - - - - -
04/01:30am 24.1 SSE 3 4 1011.2 - 0.4 - - - - - - -
04/01:00am 24.5 CALM 0 0 1011.1 - 0.4 - - - - - - -
04/12:30am 25.2 WSW 3 4 1011.3 - 0.4 - - - - - - -
04/12:00am 25.5 SSW 5 7 1011.7 - 0.4 - - - - - - -
 
Date/Time
WST
Temp

°C
Wind Pressure Rain
since 9am
mm
Weather Cloud Vis
km
Sea
Height
m
Swell
Dir
 
Speed
knots
Gust
knots
hPa Trend Height
m
Period
s
Dir
03/11:30pm 24.8 SW 3 4 1012.2 - 0.4 - - - - - - -
03/11:00pm 24.6 N 3 5 1012.2 - 0.4 - - - - - - -
03/10:30pm 25.3 S 5 8 1012.6 - 0.4 - - - - - - -
03/10:00pm 24.4 SE 1 3 1012.1 - 0.4 - - - - - - -
03/09:30pm 25.1 SSW 4 5 1012.3 - 0.4 - - - - - - -
03/09:00pm 25.0 SW 2 4 1012.1 - 0.4 - - - - - - -
03/08:30pm 24.6 CALM 0 0 1012.1 - 0.4 - - - - - - -
03/08:00pm 24.9 CALM 0 0 1012.5 - 0.4 - - - - - - -
03/07:30pm 25.5 S 4 6 1012.2 - 0.4 - - - - - - -
03/07:00pm 24.7 N 2 4 1011.1 - 0.4 - - - - - - -
03/06:30pm 25.2 S 3 4 1010.3 - 0.4 - - - - - - -
03/06:00pm 26.0 W 2 3 1010.4 - 0.4 - - - - - - -
03/05:30pm 26.3 CALM 0 0 1010.5 - 0.4 - - - - - - -
03/05:00pm 26.6 NW 3 5 1010.1 - 0.4 - - - - - - -
03/04:30pm 27.0 NNW 5 8 1009.8 - 0.4 - - - - - - -
03/04:00pm 26.4 ENE 7 12 1009.2 - 0.4 - - - - - - -
03/03:30pm 27.4 E 13 21 1009.5 - 0.4 - - - - - - -
03/03:06pm 29.0 ESE 11 21 1009.2 - 0.4 - - - - - - -
03/03:00pm 31.6 E 5 9 1009.2 - 0.4 - - - - - - -
03/02:30pm 31.8 NE 4 7 1008.8 - 0.4 - - - - - - -
03/02:00pm 29.2 W 4 6 1008.7 - 0.4 - - - - - - -
03/01:30pm 27.8 WNW 5 7 1008.9 - 0.4 - - - - - - -
03/01:00pm 27.2 NW 4 7 1009.4 - 0.4 - - - - - - -
03/12:30pm 26.9 N 4 8 1010.0 - 0.4 - - - - - - -
03/12:00pm 29.5 ENE 9 16 1010.2 - 0.4 Rain - - - - - -
03/11:30am 35.2 ENE 6 9 1010.1 - 0.0 - - - - - - -
03/11:00am 34.1 ENE 7 12 1010.7 - 0.0 - - - - - - -
03/10:30am 34.6 NE 8 13 1011.3 - 0.0 - - - - - - -
03/10:00am 33.5 NE 8 15 1011.8 - 0.0 - - - - - - -
03/09:30am 34.4 ENE 7 11 1012.1 - 0.0 - - - - - - -
03/09:00am 33.6 NE 7 14 1012.1 - 0.0 - - - - - - -
03/08:30am 32.9 SSW 3 4 1012.0 - 0.0 - - - - - - -
03/08:00am 31.3 SSW 5 6 1011.7 - 0.0 - - - - - - -
03/07:30am 29.5 S 3 4 1011.5 - 0.0 - - - - - - -
03/07:00am 27.8 CALM 0 4 1011.2 - 0.0 - - - - - - -
03/06:30am 25.2 CALM 0 0 1011.0 - 0.0 - - - - - - -
03/06:00am 24.2 CALM 0 0 1011.2 - 0.0 - - - - - - -
03/05:30am 24.9 CALM 0 0 1010.9 - 0.0 - - - - - - -
03/05:00am 24.6 SE 1 3 1010.7 - 0.0 - - - - - - -
03/04:30am 24.3 SSE 2 4 1010.7 - 0.0 - - - - - - -
03/04:00am 24.7 CALM 0 0 1010.4 - 0.0 - - - - - - -
03/03:30am 24.6 CALM 0 0 1010.3 - 0.0 - - - - - - -
03/03:00am 24.9 S 2 5 1010.2 - 0.0 - - - - - - -
03/02:30am 25.2 SSW 3 4 1010.4 - 0.0 - - - - - - -
03/02:00am 25.2 SSE 3 4 1010.8 - 0.0 - - - - - - -
03/01:30am 25.2 CALM 0 0 1011.1 - 0.0 - - - - - - -
03/01:00am 25.0 CALM 0 0 1011.3 - 0.0 - - - - - - -
03/12:30am 25.5 CALM 0 0 1011.6 - 0.0 - - - - - - -
03/12:00am 25.5 CALM 0 0 1011.9 - 0.0 - - - - - - -
 
Date/Time
WST
Temp

°C
Wind Pressure Rain
since 9am
mm
Weather Cloud Vis
km
Sea
Height
m
Swell
Dir
 
Speed
knots
Gust
knots
hPa Trend Height
m
Period
s
Dir
02/11:30pm 25.7 CALM 0 0 1012.1 - 0.0 - - - - - - -
02/11:00pm 26.5 S 1 4 1012.2 - 0.0 - - - - - - -
02/10:30pm 26.6 CALM 0 0 1012.5 - 0.0 - - - - - - -
02/10:00pm 27.3 CALM 0 0 1012.7 - 0.0 - - - - - - -
02/09:30pm 28.2 CALM 0 0 1013.0 - 0.0 - - - - - - -
02/09:00pm 28.3 CALM 0 0 1013.0 - 0.0 - - - - - - -
02/08:30pm 28.4 CALM 0 0 1013.0 - 0.0 - - - - - - -
02/08:00pm 29.1 NNE 3 5 1012.9 - 0.0 - - - - - - -
02/07:30pm 29.6 NNE 5 6 1012.3 - 0.0 - - - - - - -
02/07:00pm 30.1 NNE 5 9 1011.8 - 0.0 - - - - - - -
02/06:30pm 30.0 NNW 5 7 1011.4 - 0.0 - - - - - - -
02/06:00pm 30.2 N 8 14 1011.0 - 0.0 - - - - - - -
02/05:30pm 30.5 NNW 7 10 1010.5 - 0.0 - - - - - - -
02/05:00pm 31.4 NNW 7 9 1010.0 - 0.0 - - - - - - -
02/04:30pm 32.3 NNW 7 11 1009.6 - 0.0 - - - - - - -
02/04:00pm 33.7 N 7 11 1009.1 - 0.0 - - - - - - -
02/03:30pm 34.2 N 8 11 1008.7 - 0.0 - - - - - - -
02/03:00pm 33.8 NNE 3 8 1008.6 - 0.0 - - - - - - -
02/02:30pm 33.5 ENE 7 13 1009.3 - 0.0 - - - - - - -
02/02:00pm 35.3 N 11 15 1008.9 - 0.0 - - - - - - -
02/01:30pm 34.9 N 11 15 1008.8 - 0.0 - - - - - - -
02/01:00pm 34.4 NW 9 13 1009.2 - 0.0 - - - - - - -
02/12:30pm 35.5 NW 8 12 1009.6 - 0.0 - - - - - - -
02/12:00pm 36.4 NW 8 11 1010.2 - 0.0 - - - - - - -
02/11:30am 36.9 NNW 10 14 1010.6 - 0.0 - - - - - - -
02/11:00am 36.2 NNE 7 10 1010.9 - 0.0 - - - - - - -
02/10:30am 36.9 ENE 6 9 1011.4 - 0.0 - - - - - - -
02/10:00am 36.1 NNW 5 8 1011.7 - 0.0 - - - - - - -
02/09:30am 34.9 WNW 4 7 1012.1 - 0.0 - - - - - - -
02/09:00am 35.1 SSW 4 6 1012.2 - 0.0 - - - - - - -
02/08:30am 32.8 SSW 3 5 1012.3 - 0.0 - - - - - - -
02/08:00am 30.2 CALM 0 3 1012.5 - 0.0 - - - - - - -
02/07:30am 29.2 S 4 5 1012.4 - 0.0 - - - - - - -
02/07:00am 28.8 S 4 5 1012.1 - 0.0 - - - - - - -
02/06:30am 26.3 SSW 2 4 1011.4 - 0.0 - - - - - - -
02/06:00am 23.9 CALM 0 0 1011.0 - 0.0 - - - - - - -
02/05:30am 23.4 CALM 0 0 1010.5 - 0.0 - - - - - - -
02/05:00am 23.5 CALM 0 0 1010.1 - 0.0 - - - - - - -
02/04:30am 23.5 CALM 0 0 1009.7 - 0.0 - - - - - - -
02/04:00am 23.4 CALM 0 0 1009.5 - 0.0 - - - - - - -
02/03:30am 23.8 CALM 0 0 1009.4 - 0.0 - - - - - - -
02/03:00am 23.4 CALM 0 0 1009.4 - 0.0 - - - - - - -
02/02:30am 23.8 CALM 0 0 1009.5 - 0.0 - - - - - - -
02/02:00am 23.9 CALM 0 0 1009.5 - 0.0 - - - - - - -
02/01:30am 24.2 CALM 0 0 1009.5 - 0.0 - - - - - - -
02/01:00am 24.4 CALM 0 0 1010.0 - 0.0 - - - - - - -
02/12:30am 24.7 CALM 0 0 1010.3 - 0.0 - - - - - - -
02/12:00am 24.6 CALM 0 0 1010.6 - 0.0 - - - - - - -
 
Date/Time
WST
Temp

°C
Wind Pressure Rain
since 9am
mm
Weather Cloud Vis
km
Sea
Height
m
Swell
Dir
 
Speed
knots
Gust
knots
hPa Trend Height
m
Period
s
Dir
01/11:30pm 24.8 CALM 0 0 1010.9 - 0.0 - - - - - - -
01/11:00pm 25.2 CALM 0 0 1011.1 - 0.0 - - - - - - -
01/10:30pm 25.4 CALM 0 0 1011.3 - 0.0 - - - - - - -
01/10:00pm 25.6 CALM 0 0 1011.6 - 0.0 - - - - - - -
01/09:30pm 26.0 CALM 0 0 1011.7 - 0.0 - - - - - - -
01/09:00pm 26.6 CALM 0 0 1011.7 - 0.0 - - - - - - -
01/08:30pm 27.1 CALM 0 0 1011.7 - 0.0 - - - - - - -
01/08:00pm 28.4 NNE 1 3 1011.7 - 0.0 - - - - - - -
01/07:30pm 28.7 NE 4 5 1011.3 - 0.0 - - - - - - -
01/07:00pm 29.6 NNE 4 5 1011.0 - 0.0 - - - - - - -
01/06:30pm 30.6 N 4 6 1010.4 - 0.0 - - - - - - -
01/06:00pm 31.3 N 5 8 1009.9 - 0.0 - - - - - - -

Other Formats:

Comma delimited format used in spreadsheet applications
http://www.bom.gov.au/fwo/IDW60701/IDW60701.94100.axf

JavaScript Object Notation format (JSON) in row-major order
http://www.bom.gov.au/fwo/IDW60701/IDW60701.94100.json